Time;durP1;ratioP1;P1;durP2;ratioP2;P2;SDS_P1;SDS_P2;PMS_P1;PMS_P2;Temp;Humidity;BMP_temperature;BMP_pressure;BME280_temperature;BME280_humidity;BME280_pressure;Samples;Min_cycle;Max_cycle;Signal;HPM_P1;HPM_P2
2022/01/21 00:00:34;;;;;;;;;;;;;;;17.38;35.89;100681.66;5071566;28;933;-56
2022/01/21 00:03:00;;;;;;;;;;;;;;;17.50;35.38;100686.84;5076820;28;1121;-55
2022/01/21 00:05:25;;;;;;;;;;;;;;;17.53;35.48;100677.16;5076926;28;830;-55
2022/01/21 00:07:51;;;;;;;;;;;;;;;17.69;35.40;100687.00;5077036;28;877;-55
2022/01/21 00:10:16;;;;;;;;;;;;;;;17.65;35.24;100685.91;5076862;28;781;-55
2022/01/21 00:12:42;;;;;;;;;;;;;;;17.87;34.80;100688.28;5058275;28;1902;-55
2022/01/21 00:15:08;;;;;;;;;;;;;;;17.92;34.56;100692.94;5062302;28;928;-55
2022/01/21 00:17:33;;;;;;;;;;;;;;;17.84;34.82;100679.75;5053360;28;874;-55
2022/01/21 00:30:54;;;;;;;;;;;;;;;16.47;37.98;100700.75;5053758;28;832;-55
2022/01/21 00:33:19;;;;;;;;;;;;;;;17.29;36.19;100699.81;5074267;28;1977;-55
2022/01/21 00:35:45;;;;;;;;;;;;;;;17.39;35.75;100699.78;5077100;28;876;-54
2022/01/21 00:38:13;;;;;;;;;;;;;;;17.51;35.61;100696.69;5076157;28;854;-56
2022/01/21 00:40:38;;;;;;;;;;;;;;;17.57;35.27;100694.75;5058878;28;991;-55
2022/01/21 00:43:16;;;;;;;;;;;;;;;17.68;35.19;100690.84;5039792;28;1415;-55
2022/01/21 00:45:41;;;;;;;;;;;;;;;17.74;35.06;100688.88;5036930;28;1113;-55
2022/01/21 00:48:08;;;;;;;;;;;;;;;17.86;34.65;100686.63;5073996;28;766;-55
2022/01/21 00:50:33;;;;;;;;;;;;;;;17.76;34.95;100675.69;5076361;28;789;-55
2022/01/21 00:52:59;;;;;;;;;;;;;;;16.81;37.05;100667.22;5043500;28;1902;-55
2022/01/21 00:55:24;;;;;;;;;;;;;;;16.78;37.05;100670.53;5039169;28;1751;-55
2022/01/21 00:57:50;;;;;;;;;;;;;;;16.21;38.12;100667.81;5056087;28;851;-55
2022/01/21 01:00:15;;;;;;;;;;;;;;;17.14;36.40;100680.63;5056921;28;851;-56
2022/01/21 01:02:41;;;;;;;;;;;;;;;17.37;35.80;100669.00;5070051;28;1041;-58
2022/01/21 01:05:06;;;;;;;;;;;;;;;17.51;35.40;100673.91;5066861;28;922;-58
2022/01/21 01:07:32;;;;;;;;;;;;;;;17.52;35.41;100664.56;5039091;28;1181;-56
2022/01/21 01:09:58;;;;;;;;;;;;;;;17.63;35.05;100666.13;5057047;28;762;-54
2022/01/21 01:20:26;;;;;;;;;;;;;;;17.86;34.94;100644.53;5058203;28;825;-56
2022/01/21 01:28:20;;;;;;;;;;;;;;;15.84;39.55;100654.34;5075420;28;845;-58
2022/01/21 01:30:46;;;;;;;;;;;;;;;16.25;38.38;100659.88;5061770;28;869;-58
2022/01/21 01:33:14;;;;;;;;;;;;;;;16.26;38.32;100661.53;5069546;28;1906;-57
2022/01/21 01:35:41;;;;;;;;;;;;;;;16.41;38.37;100657.94;5057113;28;872;-57
2022/01/21 01:38:26;;;;;;;;;;;;;;;17.25;36.54;100661.09;5057478;28;1179;-55
2022/01/21 01:41:06;;;;;;;;;;;;;;;17.79;35.58;100651.19;5075697;28;872;-55
2022/01/21 01:51:25;;;;;;;;;;;;;;;17.26;36.54;100653.66;5075678;28;805;-57
2022/01/21 01:53:55;;;;;;;;;;;;;;;17.16;36.50;100653.72;5075135;28;1902;-56
2022/01/21 01:56:22;;;;;;;;;;;;;;;17.07;36.70;100659.78;5063952;28;794;-55
2022/01/21 01:58:47;;;;;;;;;;;;;;;17.18;36.59;100654.22;5038570;28;1308;-56
2022/01/21 02:01:13;;;;;;;;;;;;;;;17.29;36.50;100653.09;5039778;28;1541;-55
2022/01/21 02:03:38;;;;;;;;;;;;;;;17.34;36.60;100661.31;5075037;28;814;-56
2022/01/21 02:06:04;;;;;;;;;;;;;;;17.32;36.37;100657.19;5057668;28;1127;-56
2022/01/21 02:08:31;;;;;;;;;;;;;;;17.32;36.79;100654.47;5067686;28;819;-56
2022/01/21 02:10:56;;;;;;;;;;;;;;;17.29;36.62;100661.34;5062897;28;1004;-56
2022/01/21 02:13:31;;;;;;;;;;;;;;;17.37;36.58;100671.75;5079857;28;1905;-55
2022/01/21 02:16:13;;;;;;;;;;;;;;;17.37;36.56;100663.50;5074560;28;945;-56
2022/01/21 02:23:54;;;;;;;;;;;;;;;17.28;36.47;100670.69;5078623;28;845;-56
2022/01/21 02:26:20;;;;;;;;;;;;;;;17.09;36.99;100673.22;5079459;28;798;-56
2022/01/21 02:28:45;;;;;;;;;;;;;;;16.80;37.40;100679.28;5079016;28;849;-56
2022/01/21 02:31:10;;;;;;;;;;;;;;;16.83;37.44;100686.16;5066927;28;827;-55
2022/01/21 02:33:36;;;;;;;;;;;;;;;17.20;36.61;100685.03;5041129;28;1989;-56
2022/01/21 02:36:01;;;;;;;;;;;;;;;17.48;36.46;100693.72;5078929;28;842;-58
2022/01/21 02:38:27;;;;;;;;;;;;;;;17.86;35.55;100688.56;5078217;28;832;-56
2022/01/21 02:40:53;;;;;;;;;;;;;;;18.11;34.87;100691.16;5060966;28;920;-57
2022/01/21 02:43:18;;;;;;;;;;;;;;;17.25;36.51;100685.81;5078844;28;939;-57
2022/01/21 02:45:46;;;;;;;;;;;;;;;17.09;37.10;100684.22;5038765;28;1240;-58
2022/01/21 02:48:12;;;;;;;;;;;;;;;15.87;39.41;100681.22;5058920;28;932;-57
2022/01/21 02:50:43;;;;;;;;;;;;;;;16.56;38.24;100674.41;5041510;28;1669;-56
2022/01/21 02:53:38;;;;;;;;;;;;;;;16.62;37.82;100674.38;5040917;28;1909;-55
2022/01/21 02:55:57;;;;;;;;;;;;;;;16.63;37.72;100681.53;5040353;28;1548;-59
2022/01/21 02:58:24;;;;;;;;;;;;;;;16.73;37.83;100687.84;5040549;28;1849;-58
2022/01/21 03:00:51;;;;;;;;;;;;;;;16.96;37.10;100676.53;5060784;28;949;-57
2022/01/21 03:03:17;;;;;;;;;;;;;;;17.27;36.68;100680.03;5053100;28;861;-57
2022/01/21 03:05:43;;;;;;;;;;;;;;;17.32;36.34;100681.94;5060339;28;1134;-57
2022/01/21 03:08:08;;;;;;;;;;;;;;;17.62;35.90;100691.97;5059916;28;1083;-59
2022/01/21 03:10:34;;;;;;;;;;;;;;;17.69;35.60;100687.00;5058333;28;2221;-56
2022/01/21 03:12:59;;;;;;;;;;;;;;;17.73;35.32;100685.31;5070232;28;1982;-56
2022/01/21 03:15:24;;;;;;;;;;;;;;;17.85;35.14;100689.66;5074836;28;828;-57
2022/01/21 03:17:50;;;;;;;;;;;;;;;17.99;35.28;100687.94;5039510;28;1238;-57
2022/01/21 03:20:16;;;;;;;;;;;;;;;16.89;37.14;100685.09;5040802;28;2134;-57
2022/01/21 03:22:43;;;;;;;;;;;;;;;16.59;37.93;100687.59;5040497;28;1115;-57
2022/01/21 03:25:08;;;;;;;;;;;;;;;15.68;39.99;100686.34;5057072;28;833;-57
2022/01/21 03:27:34;;;;;;;;;;;;;;;16.48;38.39;100685.09;5059906;28;1165;-57
2022/01/21 03:30:02;;;;;;;;;;;;;;;16.26;38.50;100680.72;5059776;28;1074;-57
2022/01/21 03:32:34;;;;;;;;;;;;;;;16.23;38.81;100686.75;5036630;28;1909;-56
2022/01/21 03:35:00;;;;;;;;;;;;;;;16.81;37.65;100699.38;5041004;28;1619;-57
2022/01/21 03:37:26;;;;;;;;;;;;;;;17.63;36.02;100699.13;5042038;28;1220;-57
2022/01/21 03:39:51;;;;;;;;;;;;;;;17.62;35.79;100697.47;5059770;28;1123;-57
2022/01/21 03:42:16;;;;;;;;;;;;;;;17.27;36.61;100689.09;5059293;28;1087;-55
2022/01/21 03:44:42;;;;;;;;;;;;;;;17.13;36.96;100684.50;5059075;28;1252;-56
2022/01/21 03:47:07;;;;;;;;;;;;;;;16.85;37.40;100668.31;5041986;28;1099;-59
2022/01/21 03:49:38;;;;;;;;;;;;;;;16.82;37.66;100673.56;5040101;28;766;-57
2022/01/21 03:52:05;;;;;;;;;;;;;;;16.57;38.22;100672.47;5052308;28;1444;-57
2022/01/21 03:54:30;;;;;;;;;;;;;;;16.53;38.39;100676.88;5059171;28;1918;-57
2022/01/21 03:56:56;;;;;;;;;;;;;;;16.73;37.75;100682.34;5059906;28;1150;-58
2022/01/21 03:59:21;;;;;;;;;;;;;;;16.91;37.41;100682.88;5077435;28;793;-57
2022/01/21 04:01:47;;;;;;;;;;;;;;;17.36;36.50;100689.34;5045807;28;1266;-56
2022/01/21 04:04:12;;;;;;;;;;;;;;;17.83;36.01;100700.13;5052913;28;1280;-57
2022/01/21 04:06:38;;;;;;;;;;;;;;;18.27;35.06;100693.81;5059206;28;1136;-58
2022/01/21 04:09:05;;;;;;;;;;;;;;;17.35;36.66;100701.44;5059357;28;1140;-59
2022/01/21 04:11:30;;;;;;;;;;;;;;;17.22;36.96;100691.88;5049858;28;1206;-60
2022/01/21 04:13:56;;;;;;;;;;;;;;;16.17;39.17;100696.06;5057543;28;1909;-59
2022/01/21 04:16:22;;;;;;;;;;;;;;;16.56;38.28;100709.25;5045740;28;1096;-58
2022/01/21 04:18:48;;;;;;;;;;;;;;;16.56;38.08;100704.63;5059286;28;1257;-59
2022/01/21 04:21:14;;;;;;;;;;;;;;;16.69;38.02;100705.97;5058649;28;1141;-58
2022/01/21 04:23:40;;;;;;;;;;;;;;;16.62;38.13;100701.84;5076943;28;815;-59
2022/01/21 04:26:08;;;;;;;;;;;;;;;16.60;38.06;100699.38;5059055;28;2284;-58
2022/01/21 04:28:33;;;;;;;;;;;;;;;16.63;38.03;100693.31;5049702;28;2157;-57
2022/01/21 04:31:02;;;;;;;;;;;;;;;17.04;37.16;100682.31;5039726;28;1317;-57
2022/01/21 04:33:36;;;;;;;;;;;;;;;17.42;36.61;100685.47;5038549;28;1906;-56
2022/01/21 04:36:03;;;;;;;;;;;;;;;17.83;35.93;100689.13;5038977;28;1205;-58
2022/01/21 04:38:30;;;;;;;;;;;;;;;18.08;35.21;100700.00;5039918;28;1133;-58
2022/01/21 04:41:16;;;;;;;;;;;;;;;17.11;37.19;100698.50;5039395;28;1451;-56
2022/01/21 04:49:10;;;;;;;;;;;;;;;16.81;37.46;100743.31;5040181;28;1334;-57
2022/01/21 04:51:48;;;;;;;;;;;;;;;16.65;37.66;100729.59;5039253;28;1205;-57
2022/01/21 04:54:14;;;;;;;;;;;;;;;16.41;38.34;100730.13;5044955;28;1975;-59
2022/01/21 04:56:42;;;;;;;;;;;;;;;16.17;38.85;100734.47;5052338;28;1166;-57
2022/01/21 04:59:07;;;;;;;;;;;;;;;16.55;38.42;100737.81;5057258;28;814;-59
2022/01/21 05:01:35;;;;;;;;;;;;;;;16.28;38.84;100725.16;5040651;28;1410;-61
2022/01/21 05:04:01;;;;;;;;;;;;;;;16.24;38.93;100744.09;5057600;28;1097;-58
2022/01/21 05:06:27;;;;;;;;;;;;;;;16.42;38.57;100748.25;5049169;28;1318;-59
2022/01/21 05:08:55;;;;;;;;;;;;;;;16.83;37.58;100765.81;5037415;28;1227;-61
2022/01/21 05:11:22;;;;;;;;;;;;;;;17.09;37.05;100750.97;5043592;28;1202;-62
2022/01/21 05:14:44;;;;;;;;;;;;;;;17.28;36.64;100758.66;5057880;28;1898;-59
2022/01/21 05:16:49;;;;;;;;;;;;;;;17.48;36.12;100754.19;5040370;28;1574;-62
2022/01/21 05:19:17;;;;;;;;;;;;;;;17.65;35.85;100771.16;5039912;28;2135;-60
2022/01/21 05:22:02;;;;;;;;;;;;;;;17.71;35.58;100770.06;5075744;28;990;-60
2022/01/21 05:24:33;;;;;;;;;;;;;;;17.74;35.77;100785.97;5076191;28;781;-64
2022/01/21 05:27:00;;;;;;;;;;;;;;;17.86;35.48;100801.34;5075732;28;778;-61
2022/01/21 05:29:41;;;;;;;;;;;;;;;17.73;35.54;100803.56;5058014;28;1119;-61
2022/01/21 05:32:20;;;;;;;;;;;;;;;17.27;36.61;100809.22;5061222;28;1025;-62
2022/01/21 05:35:01;;;;;;;;;;;;;;;17.12;36.63;100804.53;5075716;28;800;-62
2022/01/21 05:37:40;;;;;;;;;;;;;;;16.79;37.13;100816.88;5057762;28;1176;-60
2022/01/21 05:40:24;;;;;;;;;;;;;;;16.51;37.89;100806.16;5057553;28;797;-60
2022/01/21 05:43:11;;;;;;;;;;;;;;;16.20;38.27;100827.22;5032593;28;1678;-60
2022/01/21 05:48:58;;;;;;;;;;;;;;;17.14;37.02;100818.00;5055928;28;642;-60
2022/01/21 05:51:42;;;;;;;;;;;;;;;17.44;36.13;100811.63;5052039;28;985;-58
2022/01/21 05:54:09;;;;;;;;;;;;;;;17.06;36.64;100813.91;5056462;28;1909;-60
2022/01/21 05:56:54;;;;;;;;;;;;;;;16.81;37.38;100809.22;5038310;28;1209;-61
2022/01/21 05:59:31;;;;;;;;;;;;;;;16.64;37.75;100821.28;5074627;28;802;-61
2022/01/21 06:01:57;;;;;;;;;;;;;;;16.48;37.80;100816.84;5045518;28;1109;-60
2022/01/21 06:04:22;;;;;;;;;;;;;;;16.41;38.01;100817.09;5056202;28;986;-60
2022/01/21 06:06:48;;;;;;;;;;;;;;;16.37;38.56;100813.28;5037891;28;1080;-59
2022/01/21 06:09:13;;;;;;;;;;;;;;;16.53;38.00;100814.94;5038132;28;803;-59
2022/01/21 06:11:39;;;;;;;;;;;;;;;17.47;36.56;100807.50;5042584;28;1100;-57
2022/01/21 06:14:04;;;;;;;;;;;;;;;18.83;33.84;100810.13;5075460;28;1914;-59
2022/01/21 06:16:30;;;;;;;;;;;;;;;18.53;34.22;100817.53;5044305;28;1129;-57
2022/01/21 06:18:56;;;;;;;;;;;;;;;19.31;33.05;100824.06;5056113;28;777;-58
2022/01/21 06:21:21;;;;;;;;;;;;;;;18.78;33.65;100830.28;5055918;28;779;-58
2022/01/21 06:23:47;;;;;;;;;;;;;;;18.05;34.91;100835.41;5063342;28;862;-58
2022/01/21 06:26:12;;;;;;;;;;;;;;;17.96;35.36;100839.81;5074733;28;884;-57
2022/01/21 06:28:38;;;;;;;;;;;;;;;18.36;34.96;100832.47;5075218;28;945;-60
2022/01/21 06:31:03;;;;;;;;;;;;;;;18.12;35.35;100840.59;5067173;28;1369;-59
2022/01/21 06:33:28;;;;;;;;;;;;;;;17.79;35.85;100846.47;5055758;28;1980;-59
2022/01/21 06:35:54;;;;;;;;;;;;;;;17.53;36.29;100853.97;5057093;28;1158;-60
2022/01/21 06:38:20;;;;;;;;;;;;;;;17.31;36.80;100846.03;5075493;28;889;-58
2022/01/21 06:40:46;;;;;;;;;;;;;;;17.07;37.24;100846.59;5074919;28;758;-59
2022/01/21 06:43:12;;;;;;;;;;;;;;;16.77;37.63;100861.94;5057117;28;997;-59
2022/01/21 06:45:37;;;;;;;;;;;;;;;16.53;38.09;100853.38;5072922;28;942;-57
2022/01/21 06:48:03;;;;;;;;;;;;;;;16.43;38.39;100848.69;5051619;28;1307;-63
2022/01/21 06:50:29;;;;;;;;;;;;;;;16.22;38.75;100852.47;5050768;28;1374;-63
2022/01/21 06:52:54;;;;;;;;;;;;;;;16.32;38.83;100863.47;5054609;28;1914;-63
2022/01/21 06:55:20;;;;;;;;;;;;;;;16.88;37.64;100861.94;5060586;28;1603;-66
2022/01/21 06:57:45;;;;;;;;;;;;;;;17.41;36.55;100858.94;5056074;28;1371;-57
2022/01/21 07:00:11;;;;;;;;;;;;;;;17.38;36.56;100857.56;5058317;28;1125;-59
2022/01/21 07:02:37;;;;;;;;;;;;;;;17.49;36.53;100846.53;5057863;28;1381;-62
2022/01/21 07:05:04;;;;;;;;;;;;;;;17.57;36.40;100843.22;5063563;28;1348;-59
2022/01/21 07:07:30;;;;;;;;;;;;;;;17.81;35.92;100829.69;5078702;28;890;-65
2022/01/21 07:09:55;;;;;;;;;;;;;;;17.86;36.19;100837.09;5066689;28;1289;-66
2022/01/21 07:12:21;;;;;;;;;;;;;;;17.75;36.67;100837.13;5058895;28;811;-61
2022/01/21 07:14:46;;;;;;;;;;;;;;;17.45;37.11;100838.03;5054122;28;1902;-66
2022/01/21 07:17:12;;;;;;;;;;;;;;;17.20;37.68;100834.22;5067604;28;785;-63
2022/01/21 07:19:37;;;;;;;;;;;;;;;16.95;38.49;100845.22;5063489;28;1610;-62
2022/01/21 07:22:03;;;;;;;;;;;;;;;16.81;38.64;100850.41;5068581;28;1290;-63
2022/01/21 07:24:28;;;;;;;;;;;;;;;16.67;39.00;100847.38;5065098;28;1472;-63
2022/01/21 07:26:54;;;;;;;;;;;;;;;16.51;39.46;100849.25;5054622;28;1677;-64
2022/01/21 07:29:22;;;;;;;;;;;;;;;16.32;39.94;100847.00;5056804;28;1615;-66
2022/01/21 07:31:54;;;;;;;;;;;;;;;16.28;40.07;100834.09;5054872;28;1099;-63
2022/01/21 07:34:20;;;;;;;;;;;;;;;16.31;40.63;100834.38;5057628;28;1980;-67
2022/01/21 07:36:46;;;;;;;;;;;;;;;16.40;40.43;100843.72;5060151;28;1309;-66
2022/01/21 07:39:13;;;;;;;;;;;;;;;16.57;40.07;100853.66;5068769;28;1551;-62
2022/01/21 07:41:39;;;;;;;;;;;;;;;16.57;39.70;100848.97;5070259;28;1203;-60
2022/01/21 07:44:04;;;;;;;;;;;;;;;16.70;39.38;100847.63;5063685;28;1390;-61
2022/01/21 07:46:30;;;;;;;;;;;;;;;17.02;38.81;100857.56;5062703;28;1571;-62
2022/01/21 07:48:57;;;;;;;;;;;;;;;17.37;38.38;100861.41;5058388;28;1487;-65
2022/01/21 07:51:23;;;;;;;;;;;;;;;17.54;37.87;100869.34;5054738;28;1391;-63
2022/01/21 07:53:48;;;;;;;;;;;;;;;17.68;37.38;100872.34;5057348;28;1969;-63
2022/01/21 07:56:14;;;;;;;;;;;;;;;17.85;37.18;100868.44;5051862;28;817;-63
2022/01/21 07:58:39;;;;;;;;;;;;;;;18.08;36.72;100883.53;5058573;28;1534;-61
2022/01/21 08:01:05;;;;;;;;;;;;;;;17.96;36.93;100897.59;5057404;28;1458;-64
2022/01/21 08:03:30;;;;;;;;;;;;;;;17.87;37.49;100896.50;5069611;28;782;-63
2022/01/21 08:05:55;;;;;;;;;;;;;;;17.73;37.86;100891.59;5060846;28;1373;-65
2022/01/21 08:08:21;;;;;;;;;;;;;;;17.65;37.76;100897.66;5061586;28;1481;-65
2022/01/21 08:10:46;;;;;;;;;;;;;;;17.35;38.01;100899.34;5061969;28;1523;-65
2022/01/21 08:13:12;;;;;;;;;;;;;;;16.91;38.52;100906.22;5063790;28;1913;-65
2022/01/21 08:15:37;;;;;;;;;;;;;;;16.85;38.64;100906.44;5053289;28;1304;-62
2022/01/21 08:18:03;;;;;;;;;;;;;;;16.65;38.89;100899.81;5052378;28;1603;-60
2022/01/21 08:20:29;;;;;;;;;;;;;;;16.48;38.79;100910.16;5053978;28;1212;-61
2022/01/21 08:22:54;;;;;;;;;;;;;;;16.51;39.02;100915.13;5057311;28;1441;-67
2022/01/21 08:25:20;;;;;;;;;;;;;;;16.48;39.71;100926.63;5056471;28;850;-66
2022/01/21 08:27:45;;;;;;;;;;;;;;;16.65;39.57;100927.25;5059727;28;1299;-64
2022/01/21 08:30:11;;;;;;;;;;;;;;;16.74;39.38;100942.09;5053705;28;1499;-66
2022/01/21 08:32:37;;;;;;;;;;;;;;;16.76;39.10;100936.34;5059636;28;1172;-65
2022/01/21 08:35:03;;;;;;;;;;;;;;;16.84;39.15;100934.97;5058616;28;1224;-64
2022/01/21 08:37:29;;;;;;;;;;;;;;;16.83;39.05;100939.66;5063604;28;1378;-66
2022/01/21 08:39:57;;;;;;;;;;;;;;;17.04;38.87;100928.72;5057435;28;1323;-63
2022/01/21 08:42:23;;;;;;;;;;;;;;;17.25;38.22;100943.31;5057753;28;1509;-64
2022/01/21 08:44:49;;;;;;;;;;;;;;;17.49;37.91;100956.50;5057228;28;1067;-66
2022/01/21 08:47:15;;;;;;;;;;;;;;;17.67;37.50;100952.38;5069620;28;1254;-62
2022/01/21 08:49:44;;;;;;;;;;;;;;;17.84;37.31;100952.06;5056591;28;1324;-60
2022/01/21 08:52:18;;;;;;;;;;;;;;;17.87;37.24;100954.28;5070083;28;1587;-66
2022/01/21 08:54:44;;;;;;;;;;;;;;;18.03;36.81;100952.34;5071854;28;1975;-67
2022/01/21 08:57:09;;;;;;;;;;;;;;;18.09;36.73;100949.31;5064857;28;1330;-69
2022/01/21 08:59:34;;;;;;;;;;;;;;;18.28;36.36;100956.94;5057016;28;1370;-65
2022/01/21 09:02:00;;;;;;;;;;;;;;;18.22;36.54;100958.09;5052651;28;1520;-70
2022/01/21 09:04:25;;;;;;;;;;;;;;;17.88;37.25;100965.00;5056148;28;1445;-67
2022/01/21 09:06:51;;;;;;;;;;;;;;;17.49;37.79;100957.34;5057323;28;844;-68
2022/01/21 09:09:16;;;;;;;;;;;;;;;17.37;38.09;100954.84;5051218;28;1229;-69
2022/01/21 09:11:42;;;;;;;;;;;;;;;17.08;38.72;100952.66;5054922;28;1513;-68
2022/01/21 09:14:07;;;;;;;;;;;;;;;17.00;38.76;100977.91;5056366;28;1930;-69
2022/01/21 09:16:33;;;;;;;;;;;;;;;16.74;38.81;100966.81;5046774;28;1410;-66
2022/01/21 09:19:02;;;;;;;;;;;;;;;16.56;38.78;100956.31;5051259;28;1312;-64
2022/01/21 09:21:28;;;;;;;;;;;;;;;16.26;38.92;100949.63;5055124;28;1429;-67
2022/01/21 09:23:53;;;;;;;;;;;;;;;16.45;40.05;100951.88;5063720;28;1282;-68
2022/01/21 09:26:20;;;;;;;;;;;;;;;16.98;39.08;100958.09;5057538;28;1393;-67
2022/01/21 09:28:48;;;;;;;;;;;;;;;17.55;37.80;100958.97;5056746;28;1675;-66
2022/01/21 09:31:13;;;;;;;;;;;;;;;18.10;36.73;100974.88;5062870;28;1713;-64
2022/01/21 09:33:40;;;;;;;;;;;;;;;18.42;36.07;100957.16;5055008;28;1902;-67
2022/01/21 09:36:06;;;;;;;;;;;;;;;18.50;35.95;100969.53;5055893;28;1406;-66
2022/01/21 09:38:31;;;;;;;;;;;;;;;18.39;36.05;100977.81;5036730;28;1481;-69
2022/01/21 09:40:57;;;;;;;;;;;;;;;18.10;36.50;100961.13;5055935;28;1290;-66
2022/01/21 09:43:22;;;;;;;;;;;;;;;17.63;37.65;100968.63;5056652;28;1111;-67
2022/01/21 09:45:51;;;;;;;;;;;;;;;17.23;38.08;100962.00;5060460;28;1288;-68
2022/01/21 09:48:22;;;;;;;;;;;;;;;16.93;38.69;100972.66;5059507;28;1318;-68
2022/01/21 09:50:52;;;;;;;;;;;;;;;16.64;38.73;100966.78;5059431;28;1226;-66
2022/01/21 09:53:20;;;;;;;;;;;;;;;16.35;38.82;100969.94;5063948;28;1905;-63
2022/01/21 09:55:46;;;;;;;;;;;;;;;16.26;38.81;100957.84;5037907;28;1490;-63
2022/01/21 09:58:11;;;;;;;;;;;;;;;16.34;39.34;100962.84;5063622;28;1417;-64
2022/01/21 10:00:36;;;;;;;;;;;;;;;16.42;39.74;100961.47;5053070;28;1450;-64
2022/01/21 10:03:03;;;;;;;;;;;;;;;16.75;39.55;100967.66;5054113;28;1303;-65
2022/01/21 10:05:28;;;;;;;;;;;;;;;17.05;38.91;100971.59;5058963;28;1416;-63
2022/01/21 10:07:53;;;;;;;;;;;;;;;17.21;38.34;100964.22;5035776;28;1550;-66
2022/01/21 10:10:19;;;;;;;;;;;;;;;17.49;37.60;100968.34;5036766;28;1647;-64
2022/01/21 10:12:47;;;;;;;;;;;;;;;17.65;37.22;100966.41;5060299;28;1988;-64
2022/01/21 10:15:13;;;;;;;;;;;;;;;17.67;37.45;100961.47;5056252;28;1373;-64
2022/01/21 10:17:38;;;;;;;;;;;;;;;17.78;36.98;100959.50;5056454;28;1148;-65
2022/01/21 10:20:18;;;;;;;;;;;;;;;17.88;36.90;100958.66;5060252;28;1647;-67
2022/01/21 10:22:57;;;;;;;;;;;;;;;18.04;36.75;100960.31;5074104;28;1220;-64
2022/01/21 10:25:23;;;;;;;;;;;;;;;18.00;36.74;100959.22;5049522;28;1397;-63
2022/01/21 10:27:51;;;;;;;;;;;;;;;17.71;37.22;100969.97;5054784;28;1414;-67
2022/01/21 10:30:20;;;;;;;;;;;;;;;17.40;37.67;100961.72;5057382;28;1602;-64
2022/01/21 10:32:45;;;;;;;;;;;;;;;17.27;37.91;100961.16;5058467;28;1985;-64
2022/01/21 10:35:25;;;;;;;;;;;;;;;16.93;38.60;100961.69;5061138;28;1292;-64
2022/01/21 10:37:51;;;;;;;;;;;;;;;16.67;39.61;100968.16;5071193;28;1091;-63
2022/01/21 10:40:18;;;;;;;;;;;;;;;16.74;39.15;100957.75;5070802;28;1180;-63
2022/01/21 10:42:45;;;;;;;;;;;;;;;16.43;39.51;100972.19;5067314;28;1208;-65
2022/01/21 10:45:11;;;;;;;;;;;;;;;16.40;39.49;100964.50;5062648;28;1270;-62
2022/01/21 10:47:38;;;;;;;;;;;;;;;16.47;40.00;100958.75;5059894;28;1572;-63
2022/01/21 10:50:13;;;;;;;;;;;;;;;16.92;39.32;100953.72;5058794;28;1492;-65
2022/01/21 10:52:39;;;;;;;;;;;;;;;17.15;38.79;100946.06;5057958;28;1651;-61
2022/01/21 10:55:06;;;;;;;;;;;;;;;17.43;38.38;100945.53;5062599;28;1913;-65
2022/01/21 10:57:32;;;;;;;;;;;;;;;17.58;37.79;100950.16;5044665;28;1314;-65
2022/01/21 10:59:59;;;;;;;;;;;;;;;17.77;37.48;100936.69;5069829;28;1630;-65
2022/01/21 11:02:40;;;;;;;;;;;;;;;18.02;36.98;100940.53;5059461;28;868;-65
2022/01/21 11:05:09;;;;;;;;;;;;;;;18.05;37.24;100931.69;5058978;28;1642;-67
2022/01/21 11:07:47;;;;;;;;;;;;;;;17.82;37.74;100937.78;5076687;28;1547;-69
2022/01/21 11:10:31;;;;;;;;;;;;;;;17.54;38.00;100940.81;5078882;28;782;-67
2022/01/21 11:12:56;;;;;;;;;;;;;;;17.12;38.78;100941.09;5056265;28;1902;-66
2022/01/21 11:15:22;;;;;;;;;;;;;;;16.92;39.16;100950.97;5062581;28;1424;-63
2022/01/21 11:17:56;;;;;;;;;;;;;;;16.90;38.73;100945.75;5067114;28;1476;-72
2022/01/21 11:20:25;;;;;;;;;;;;;;;16.57;38.81;100945.06;5071174;28;1736;-62
2022/01/21 11:22:54;;;;;;;;;;;;;;;16.28;39.58;100939.19;5074671;28;1380;-66
2022/01/21 11:25:38;;;;;;;;;;;;;;;16.21;39.51;100941.34;5059227;28;1568;-69
2022/01/21 11:28:03;;;;;;;;;;;;;;;16.63;40.95;100956.88;5059167;28;821;-68
2022/01/21 11:30:29;;;;;;;;;;;;;;;17.29;39.10;100952.66;5058401;28;1455;-65
2022/01/21 11:32:54;;;;;;;;;;;;;;;17.86;37.88;100955.38;5062419;28;1906;-69
2022/01/21 11:35:20;;;;;;;;;;;;;;;18.24;37.16;100950.34;5069484;28;1310;-65
2022/01/21 11:37:45;;;;;;;;;;;;;;;18.43;36.83;100940.38;5064961;28;1615;-64
2022/01/21 11:40:11;;;;;;;;;;;;;;;18.54;36.82;100948.59;5039968;28;1194;-65
2022/01/21 11:42:37;;;;;;;;;;;;;;;18.17;37.30;100944.31;5060914;28;1273;-71
2022/01/21 11:45:18;;;;;;;;;;;;;;;17.69;38.32;100937.25;5074907;28;1417;-63
2022/01/21 11:48:01;;;;;;;;;;;;;;;17.39;39.02;100938.94;5058698;28;1353;-65
2022/01/21 11:50:29;;;;;;;;;;;;;;;16.99;39.30;100931.47;5043627;28;1410;-66
2022/01/21 11:52:55;;;;;;;;;;;;;;;16.79;39.06;100921.22;5034624;28;1975;-65
2022/01/21 11:55:30;;;;;;;;;;;;;;;16.58;38.92;100915.72;5071492;28;1039;-59
2022/01/21 11:58:14;;;;;;;;;;;;;;;16.50;39.03;100925.28;5063425;28;1560;-64
2022/01/21 12:00:40;;;;;;;;;;;;;;;16.54;39.57;100931.06;5061740;28;1575;-68
2022/01/21 12:03:05;;;;;;;;;;;;;;;16.59;40.46;100926.41;5056914;28;861;-66
2022/01/21 12:05:31;;;;;;;;;;;;;;;16.73;40.36;100929.47;5077299;28;819;-64
2022/01/21 12:08:03;;;;;;;;;;;;;;;16.86;39.83;100916.34;5064346;28;1275;-68
2022/01/21 12:10:29;;;;;;;;;;;;;;;17.14;39.38;100908.66;5058029;28;1480;-66
2022/01/21 12:13:03;;;;;;;;;;;;;;;17.33;39.21;100920.78;5062522;28;1902;-65
2022/01/21 12:15:38;;;;;;;;;;;;;;;17.52;38.90;100911.97;5076808;28;883;-67
2022/01/21 12:18:10;;;;;;;;;;;;;;;17.68;38.48;100919.09;5056777;28;1390;-65
2022/01/21 12:20:36;;;;;;;;;;;;;;;17.65;38.70;100922.41;5067571;28;1239;-68
2022/01/21 12:23:28;;;;;;;;;;;;;;;17.80;38.41;100918.81;5053440;28;1405;-66
2022/01/21 12:26:09;;;;;;;;;;;;;;;17.91;37.89;100916.91;5051932;28;1860;-62
2022/01/21 12:28:35;;;;;;;;;;;;;;;17.76;38.78;100903.97;5052745;28;1201;-67
2022/01/21 12:31:00;;;;;;;;;;;;;;;17.65;39.08;100899.59;5049962;28;1234;-67
2022/01/21 12:33:59;;;;;;;;;;;;;;;17.02;39.93;100893.28;5059036;28;1973;-67
2022/01/21 12:36:27;;;;;;;;;;;;;;;16.76;39.91;100908.91;5051741;28;1398;-68
2022/01/21 12:41:18;;;;;;;;;;;;;;;16.46;39.31;100901.41;5057901;28;1539;-68
2022/01/21 12:43:56;;;;;;;;;;;;;;;16.17;39.82;100888.09;5056258;28;1495;-67
2022/01/21 12:46:34;;;;;;;;;;;;;;;16.23;39.75;100889.78;5051861;28;1311;-70
2022/01/21 12:49:00;;;;;;;;;;;;;;;16.18;40.06;100895.25;5064687;28;1416;-65
2022/01/21 12:52:08;;;;;;;;;;;;;;;16.58;42.08;100893.75;5057307;28;1389;-69
2022/01/21 12:57:28;;;;;;;;;;;;;;;17.69;39.33;100889.69;5054083;28;1429;-67
2022/01/21 12:59:54;;;;;;;;;;;;;;;17.48;39.30;100875.16;5065662;28;1373;-65
2022/01/21 13:02:23;;;;;;;;;;;;;;;17.51;39.43;100883.66;5061295;28;1492;-63
2022/01/21 13:04:57;;;;;;;;;;;;;;;17.50;39.17;100881.19;5052750;28;1350;-65
2022/01/21 13:07:27;;;;;;;;;;;;;;;17.51;39.24;100874.59;5056464;28;1346;-64
2022/01/21 13:10:02;;;;;;;;;;;;;;;17.50;39.26;100870.19;5075582;28;818;-64
2022/01/21 13:12:45;;;;;;;;;;;;;;;17.40;39.03;100871.88;5063595;28;1304;-65
2022/01/21 13:15:11;;;;;;;;;;;;;;;17.27;39.27;100867.72;5052175;28;1981;-66
2022/01/21 13:17:36;;;;;;;;;;;;;;;17.33;39.08;100865.00;5058486;28;1259;-66
2022/01/21 13:20:04;;;;;;;;;;;;;;;17.33;39.22;100863.06;5076399;28;842;-67
2022/01/21 13:22:31;;;;;;;;;;;;;;;17.39;39.08;100858.38;5076150;28;834;-66
2022/01/21 13:25:03;;;;;;;;;;;;;;;17.27;39.28;100867.72;5056730;28;1373;-64
2022/01/21 13:27:29;;;;;;;;;;;;;;;17.40;39.14;100866.38;5056573;28;821;-66
2022/01/21 13:30:02;;;;;;;;;;;;;;;17.37;39.35;100875.13;5076090;28;910;-65
2022/01/21 13:32:29;;;;;;;;;;;;;;;17.42;38.95;100877.91;5056818;28;1351;-63
2022/01/21 13:35:04;;;;;;;;;;;;;;;17.41;38.86;100889.97;5057058;28;1973;-63
2022/01/21 13:37:30;;;;;;;;;;;;;;;17.53;39.05;100884.22;5058710;28;1182;-65
2022/01/21 13:39:55;;;;;;;;;;;;;;;17.26;39.65;100881.75;5058562;28;941;-65
2022/01/21 13:42:23;;;;;;;;;;;;;;;17.37;39.49;100894.38;5051743;28;1331;-62
2022/01/21 13:44:52;;;;;;;;;;;;;;;17.51;38.82;100886.41;5060063;28;1142;-64
2022/01/21 13:47:27;;;;;;;;;;;;;;;17.36;39.27;100897.41;5052109;28;1347;-65